createdAt,value
2022-12-12T06:11:40.597Z,-1.38
2022-12-12T06:14:08.241Z,-1.41
2022-12-12T06:16:35.518Z,-1.42
2022-12-12T06:19:03.971Z,-1.41
2022-12-12T06:21:30.609Z,-1.41
2022-12-12T06:23:57.858Z,-1.41
2022-12-12T06:26:24.593Z,-1.41
2022-12-12T06:28:52.425Z,-1.40
2022-12-12T06:31:19.302Z,-1.37
2022-12-12T06:33:46.589Z,-1.34
2022-12-12T06:36:23.847Z,-1.36
2022-12-12T06:38:55.761Z,-1.39
2022-12-12T06:41:24.432Z,-1.42
2022-12-12T06:43:51.921Z,-1.43
2022-12-12T06:46:23.255Z,-1.45
2022-12-12T06:48:50.884Z,-1.47
2022-12-12T06:51:21.589Z,-1.46
2022-12-12T06:53:49.343Z,-1.48
2022-12-12T06:56:21.387Z,-1.50
2022-12-12T06:58:49.055Z,-1.47
2022-12-12T07:01:21.591Z,-1.45
2022-12-12T07:03:50.694Z,-1.51
2022-12-12T07:06:18.834Z,-1.53
2022-12-12T07:08:46.502Z,-1.58
2022-12-12T07:11:21.868Z,-1.60
2022-12-12T07:13:49.154Z,-1.63
2022-12-12T07:16:16.081Z,-1.66
2022-12-12T07:18:43.566Z,-1.70
2022-12-12T07:21:13.579Z,-1.74
2022-12-12T07:23:41.147Z,-1.78
2022-12-12T07:26:12.857Z,-1.81
2022-12-12T07:28:40.057Z,-1.81
2022-12-12T07:31:08.937Z,-1.83
2022-12-12T07:33:43.688Z,-1.82
2022-12-12T07:36:13.507Z,-1.82
2022-12-12T07:38:41.097Z,-1.85
2022-12-12T07:41:10.643Z,-1.85
2022-12-12T07:43:43.269Z,-1.88
2022-12-12T07:46:14.414Z,-1.89
2022-12-12T07:48:41.080Z,-1.93
2022-12-12T07:51:08.209Z,-1.94
2022-12-12T07:53:35.312Z,-1.94
2022-12-12T07:56:06.739Z,-1.90
2022-12-12T07:58:33.849Z,-1.90
2022-12-12T08:01:00.774Z,-1.89
2022-12-12T08:03:27.437Z,-1.88
2022-12-12T08:05:54.420Z,-1.89
2022-12-12T08:08:21.385Z,-1.86
2022-12-12T08:10:47.974Z,-1.83
2022-12-12T08:13:15.189Z,-1.80
2022-12-12T08:15:43.091Z,-1.79
2022-12-12T08:18:10.384Z,-1.79
2022-12-12T08:20:40.118Z,-1.78
2022-12-12T08:23:07.679Z,-1.75
2022-12-12T08:25:36.088Z,-1.72
2022-12-12T08:28:03.673Z,-1.71
2022-12-12T08:30:30.202Z,-1.66
2022-12-12T08:32:57.431Z,-1.68
2022-12-12T08:35:24.035Z,-1.66
2022-12-12T08:37:51.230Z,-1.64
2022-12-12T08:40:17.794Z,-1.67
2022-12-12T08:42:45.063Z,-1.64
2022-12-12T08:45:12.448Z,-1.59
2022-12-12T08:47:39.870Z,-1.54
2022-12-12T08:50:07.237Z,-1.50
2022-12-12T08:52:34.469Z,-1.48
2022-12-12T08:55:01.027Z,-1.47
2022-12-12T08:57:28.251Z,-1.45
2022-12-12T08:59:54.892Z,-1.42
2022-12-12T09:02:22.220Z,-1.41
2022-12-12T09:04:48.824Z,-1.41
2022-12-12T09:07:15.982Z,-1.37
2022-12-12T09:09:42.541Z,-1.34
2022-12-12T09:12:09.873Z,-1.30
2022-12-12T09:14:36.749Z,-1.29
2022-12-12T09:17:03.971Z,-1.27
2022-12-12T09:19:31.018Z,-1.24
2022-12-12T09:21:58.172Z,-1.21
2022-12-12T09:24:25.451Z,-1.19
2022-12-12T09:26:52.663Z,-1.15
2022-12-12T09:29:19.250Z,-1.13
2022-12-12T09:31:46.559Z,-1.07
2022-12-12T09:34:13.594Z,-1.06
2022-12-12T09:36:40.863Z,-1.02
2022-12-12T09:39:07.485Z,-0.95
2022-12-12T09:41:34.736Z,-0.95
2022-12-12T09:44:04.940Z,-0.94
2022-12-12T09:46:40.108Z,-0.92
2022-12-12T09:49:27.944Z,-0.88
2022-12-12T09:51:56.872Z,-0.84
2022-12-12T09:54:26.159Z,-0.75
2022-12-12T09:57:05.086Z,-0.70
2022-12-12T09:59:55.059Z,-0.64
2022-12-12T10:02:30.680Z,-0.62
2022-12-12T10:05:02.199Z,-0.58
2022-12-12T10:07:39.290Z,-0.56
2022-12-12T10:10:09.520Z,-0.56
2022-12-12T10:12:36.111Z,-0.51
2022-12-12T10:15:13.267Z,-0.45
2022-12-12T10:17:44.762Z,-0.38
2022-12-12T10:20:23.929Z,-0.31
2022-12-12T10:23:05.809Z,-0.25
2022-12-12T10:25:32.921Z,-0.18
2022-12-12T10:28:15.202Z,-0.11
2022-12-12T10:30:57.495Z,-0.09
2022-12-12T10:33:53.507Z,-0.02
2022-12-12T10:36:53.786Z,0.07
2022-12-12T10:39:37.112Z,0.01
2022-12-12T10:42:41.054Z,-0.03
2022-12-12T10:45:41.055Z,-0.01
2022-12-12T10:48:07.678Z,-0.01
2022-12-12T10:50:39.703Z,0.05
2022-12-12T10:53:08.666Z,0.15
2022-12-12T10:55:56.879Z,0.25
2022-12-12T10:58:28.555Z,0.34
2022-12-12T11:01:05.061Z,0.46
2022-12-12T11:03:52.113Z,0.58
2022-12-12T11:06:29.390Z,0.64
2022-12-12T11:09:07.081Z,0.70
2022-12-12T11:11:34.573Z,0.74
2022-12-12T11:14:03.570Z,0.75
2022-12-12T11:16:51.025Z,0.78
2022-12-12T11:19:27.229Z,0.80
2022-12-12T11:21:56.184Z,0.90
2022-12-12T11:24:29.706Z,0.96
2022-12-12T11:27:00.733Z,1.02
2022-12-12T11:29:30.237Z,1.04
2022-12-12T11:31:58.962Z,1.02
2022-12-12T11:34:27.609Z,1.03
2022-12-12T11:36:58.043Z,1.01
2022-12-12T11:39:44.076Z,0.99
2022-12-12T11:42:14.023Z,0.97
2022-12-12T11:44:41.552Z,1.01
2022-12-12T11:47:43.587Z,1.11
2022-12-12T11:50:44.201Z,1.16
2022-12-12T11:53:11.419Z,1.08
2022-12-12T11:56:01.406Z,1.07
2022-12-12T11:58:37.016Z,1.13
2022-12-12T12:01:21.192Z,1.23
2022-12-12T12:04:17.729Z,1.24
2022-12-12T12:07:06.190Z,1.31
2022-12-12T12:10:26.156Z,1.36
2022-12-12T12:12:55.991Z,1.39
2022-12-12T12:15:30.828Z,1.37
2022-12-12T12:18:28.042Z,1.41
2022-12-12T12:20:57.983Z,1.42
2022-12-12T12:23:42.466Z,1.47
2022-12-12T12:26:40.440Z,1.44
2022-12-12T12:29:15.220Z,1.36
2022-12-12T12:32:00.983Z,1.41
2022-12-12T12:35:02.835Z,1.29
2022-12-12T12:37:29.925Z,1.27
2022-12-12T12:40:05.165Z,1.24
2022-12-12T12:42:54.882Z,1.28
2022-12-12T12:45:45.545Z,1.25
2022-12-12T12:48:24.982Z,1.25
2022-12-12T12:51:10.686Z,1.28
2022-12-12T12:53:42.780Z,1.27
2022-12-12T12:56:26.483Z,1.31
2022-12-12T12:59:10.405Z,1.38
2022-12-12T13:01:49.126Z,1.38
2022-12-12T13:04:29.478Z,1.35
2022-12-12T13:07:05.789Z,1.44
2022-12-12T13:09:40.578Z,1.44
2022-12-12T13:12:29.170Z,1.47
2022-12-12T13:15:13.227Z,1.46
2022-12-12T13:17:56.258Z,1.48
2022-12-12T13:20:25.639Z,1.39
2022-12-12T13:23:15.882Z,1.26
2022-12-12T13:25:51.637Z,1.25
2022-12-12T13:28:23.517Z,1.26
2022-12-12T13:30:52.737Z,1.25
2022-12-12T13:33:25.539Z,1.27
2022-12-12T13:35:58.154Z,1.23
2022-12-12T13:38:32.741Z,1.20
2022-12-12T13:41:06.318Z,1.13
2022-12-12T13:43:33.421Z,1.08
2022-12-12T13:46:20.110Z,1.04
2022-12-12T13:49:16.738Z,1.09
2022-12-12T13:51:45.414Z,1.08
2022-12-12T13:54:14.217Z,1.10
2022-12-12T13:56:54.122Z,1.11
2022-12-12T13:59:23.523Z,1.09
2022-12-12T14:02:09.410Z,1.12
2022-12-12T14:04:39.576Z,1.12
2022-12-12T14:07:12.878Z,1.20
2022-12-12T14:09:50.632Z,1.08
2022-12-12T14:12:30.752Z,1.08
2022-12-12T14:15:05.287Z,1.11
2022-12-12T14:17:42.369Z,1.11
2022-12-12T14:20:31.301Z,1.05
2022-12-12T14:23:13.903Z,1.04
2022-12-12T14:25:41.387Z,0.99
2022-12-12T14:28:22.402Z,0.96
2022-12-12T14:31:01.737Z,1.01
2022-12-12T14:33:31.871Z,1.02
2022-12-12T14:36:09.805Z,1.00
2022-12-12T14:38:52.163Z,0.95
2022-12-12T14:41:27.895Z,0.92
2022-12-12T14:44:35.418Z,0.92
2022-12-12T14:46:46.980Z,0.91
2022-12-12T14:49:18.487Z,0.87
2022-12-12T14:51:55.067Z,0.86
2022-12-12T14:54:24.621Z,0.81
2022-12-12T14:56:54.321Z,0.82
2022-12-12T14:59:28.988Z,0.86
2022-12-12T15:01:59.519Z,0.81
2022-12-12T15:04:32.656Z,0.71
2022-12-12T15:07:01.548Z,0.65
2022-12-12T15:09:31.296Z,0.59
2022-12-12T15:12:09.927Z,0.55
2022-12-12T15:14:54.490Z,0.53
2022-12-12T15:17:21.478Z,0.47
2022-12-12T15:19:51.321Z,0.45
2022-12-12T15:22:18.064Z,0.40
2022-12-12T15:24:45.934Z,0.36
2022-12-12T15:27:19.885Z,0.42
2022-12-12T15:29:47.141Z,0.40
2022-12-12T15:32:20.314Z,0.30
2022-12-12T15:34:58.588Z,0.28
2022-12-12T15:37:27.833Z,0.26
2022-12-12T15:40:01.702Z,0.31
2022-12-12T15:42:28.983Z,0.34
2022-12-12T15:44:56.613Z,0.35
2022-12-12T15:47:23.290Z,0.36
2022-12-12T15:49:52.516Z,0.35
2022-12-12T15:52:26.821Z,0.34
2022-12-12T15:54:57.264Z,0.32
2022-12-12T15:57:30.722Z,0.31
2022-12-12T16:00:11.306Z,0.30
2022-12-12T16:02:38.406Z,0.27
2022-12-12T16:05:05.606Z,0.24
2022-12-12T16:07:37.348Z,0.25
2022-12-12T16:10:21.504Z,0.22
2022-12-12T16:12:59.900Z,0.17
2022-12-12T16:15:32.056Z,0.13
2022-12-12T16:18:05.209Z,0.14
2022-12-12T16:20:33.928Z,0.13
2022-12-12T16:23:18.017Z,0.10
2022-12-12T16:25:45.409Z,0.08
2022-12-12T16:28:17.937Z,0.06
2022-12-12T16:30:58.716Z,0.02
2022-12-12T16:33:27.968Z,0.01
2022-12-12T16:35:55.148Z,0.03
2022-12-12T16:38:22.157Z,0.01
2022-12-12T16:40:51.500Z,0.00
2022-12-12T16:43:20.549Z,0.01
2022-12-12T16:45:49.447Z,-0.01
2022-12-12T16:48:19.065Z,-0.01
2022-12-12T16:50:46.445Z,-0.01
2022-12-12T16:53:13.746Z,-0.03
2022-12-12T16:55:43.304Z,-0.04
2022-12-12T16:58:10.282Z,-0.08
2022-12-12T17:00:38.451Z,-0.12
2022-12-12T17:03:05.400Z,-0.11
2022-12-12T17:05:32.850Z,-0.11
2022-12-12T17:07:59.425Z,-0.13
2022-12-12T17:10:26.752Z,-0.16
2022-12-12T17:12:54.315Z,-0.16
2022-12-12T17:15:24.783Z,-0.17
2022-12-12T17:17:51.666Z,-0.17
2022-12-12T17:20:18.971Z,-0.19
2022-12-12T17:22:46.312Z,-0.19
2022-12-12T17:25:14.331Z,-0.22
2022-12-12T17:27:41.576Z,-0.24
2022-12-12T17:30:09.513Z,-0.26
2022-12-12T17:32:36.247Z,-0.29
2022-12-12T17:35:04.730Z,-0.33
2022-12-12T17:37:31.446Z,-0.35
2022-12-12T17:39:58.462Z,-0.42
2022-12-12T17:42:30.293Z,-0.48
2022-12-12T17:44:57.243Z,-0.50
2022-12-12T17:47:23.829Z,-0.55
2022-12-12T17:49:51.029Z,-0.58
2022-12-12T17:52:17.686Z,-0.64
2022-12-12T17:54:44.638Z,-0.70
2022-12-12T17:57:31.467Z,-0.72
2022-12-12T17:59:58.846Z,-0.77
2022-12-12T18:02:25.737Z,-0.80
2022-12-12T18:04:52.987Z,-0.83
2022-12-12T18:07:19.904Z,-0.90
2022-12-12T18:09:47.146Z,-0.94
2022-12-12T18:12:13.747Z,-0.98
2022-12-12T18:14:41.035Z,-1.02
2022-12-12T18:17:07.657Z,-1.10
2022-12-12T18:19:35.108Z,-1.16
2022-12-12T18:22:02.366Z,-1.21
2022-12-12T18:24:30.629Z,-1.28
2022-12-12T18:26:59.825Z,-1.34
2022-12-12T18:29:27.683Z,-1.35
2022-12-12T18:31:54.355Z,-1.37
2022-12-12T18:34:21.886Z,-1.39
2022-12-12T18:36:49.661Z,-1.42
2022-12-12T18:39:17.204Z,-1.48
2022-12-12T18:41:43.839Z,-1.52
2022-12-12T18:44:14.480Z,-1.59
2022-12-12T18:46:43.482Z,-1.63
2022-12-12T18:49:13.918Z,-1.66
2022-12-12T18:51:40.966Z,-1.67
2022-12-12T18:54:14.177Z,-1.73
2022-12-12T18:56:42.618Z,-1.78
2022-12-12T18:59:09.782Z,-1.78
2022-12-12T19:01:36.961Z,-1.81
2022-12-12T19:04:12.208Z,-1.81
2022-12-12T19:06:42.232Z,-1.84
2022-12-12T19:09:16.084Z,-1.86
2022-12-12T19:11:43.512Z,-1.87
2022-12-12T19:14:12.784Z,-1.89
2022-12-12T19:16:39.626Z,-1.87
2022-12-12T19:19:09.506Z,-1.88
2022-12-12T19:21:37.433Z,-1.89
2022-12-12T19:24:09.380Z,-1.91
2022-12-12T19:26:37.135Z,-1.94
2022-12-12T19:29:07.871Z,-1.94
2022-12-12T19:31:35.948Z,-1.93
2022-12-12T19:34:04.745Z,-1.98
2022-12-12T19:36:31.661Z,-2.01
2022-12-12T19:39:01.294Z,-2.08
2022-12-12T19:41:27.929Z,-2.09
2022-12-12T19:43:57.466Z,-2.10
2022-12-12T19:46:26.942Z,-2.11
2022-12-12T19:48:58.143Z,-2.12
2022-12-12T19:51:26.594Z,-2.13
2022-12-12T19:53:57.229Z,-2.17
2022-12-12T19:56:30.482Z,-2.23
2022-12-12T19:58:59.310Z,-2.27
2022-12-12T20:01:29.067Z,-2.29
2022-12-12T20:03:58.911Z,-2.34
2022-12-12T20:06:26.105Z,-2.38
2022-12-12T20:08:53.729Z,-2.42
2022-12-12T20:11:22.956Z,-2.49
2022-12-12T20:13:51.727Z,-2.54
2022-12-12T20:16:20.720Z,-2.57
2022-12-12T20:18:52.696Z,-2.60
2022-12-12T20:21:51.748Z,-2.60
2022-12-12T20:24:10.020Z,-2.67
2022-12-12T20:26:37.467Z,-2.69
2022-12-12T20:29:05.319Z,-2.77
2022-12-12T20:31:34.920Z,-2.77
2022-12-12T20:34:02.400Z,-2.79
2022-12-12T20:36:34.409Z,-2.82
2022-12-12T20:39:04.556Z,-2.83
2022-12-12T20:41:34.040Z,-2.86
2022-12-12T20:44:01.405Z,-2.89
2022-12-12T20:46:30.756Z,-2.94
2022-12-12T20:48:58.640Z,-2.96
2022-12-12T20:54:22.462Z,-3.08
2022-12-12T20:56:49.573Z,-3.10
2022-12-12T20:59:16.491Z,-3.14
2022-12-12T21:01:43.937Z,-3.18
2022-12-12T21:04:10.647Z,-3.19
2022-12-12T21:06:41.048Z,-3.19
2022-12-12T21:09:10.206Z,-3.22
2022-12-12T21:11:38.909Z,-3.29
2022-12-12T21:14:06.928Z,-3.33
2022-12-12T21:16:39.034Z,-3.33
2022-12-12T21:19:08.780Z,-3.37
2022-12-12T21:21:36.826Z,-3.37
2022-12-12T21:24:04.722Z,-3.39
2022-12-12T21:26:32.389Z,-3.41
2022-12-12T21:29:01.666Z,-3.41
